Time;durP1;ratioP1;P1;durP2;ratioP2;P2;SDS_P1;SDS_P2;PMS_P1;PMS_P2;Temp;Humidity;BMP_temperature;BMP_pressure;BME280_temperature;BME280_humidity;BME280_pressure;Samples;Min_cycle;Max_cycle;Signal;HPM_P1;HPM_P2
2021/10/09 00:00:01;;;;;;;7.03;3.10;;;;;;;12.28;28.01;102058.09;1668473;84;21794;-71
2021/10/09 00:02:28;;;;;;;6.92;2.85;;;;;;;12.27;28.02;102062.97;1669641;82;21007;-71
2021/10/09 00:04:54;;;;;;;7.08;2.80;;;;;;;12.24;28.10;102062.80;1662844;84;20977;-70
2021/10/09 00:07:21;;;;;;;9.40;3.17;;;;;;;12.27;28.15;102061.17;1665026;84;21072;-71
2021/10/09 00:09:53;;;;;;;6.70;3.45;;;;;;;12.29;28.01;102061.86;1662127;84;21858;-71
2021/10/09 00:12:17;;;;;;;8.98;3.20;;;;;;;12.44;27.91;102052.18;1663244;84;21149;-73
2021/10/09 00:14:44;;;;;;;5.08;2.35;;;;;;;12.45;27.89;102048.58;1663275;84;20989;-70
2021/10/09 00:17:14;;;;;;;6.05;2.72;;;;;;;12.35;27.96;102050.81;1663405;84;21563;-70
2021/10/09 00:19:39;;;;;;;6.67;2.67;;;;;;;12.19;28.16;102053.26;1657984;84;20994;-70
2021/10/09 00:22:05;;;;;;;7.17;2.45;;;;;;;12.12;28.24;102056.13;1660623;84;21134;-69
2021/10/09 00:24:32;;;;;;;6.08;2.47;;;;;;;12.16;28.31;102053.58;1661563;84;21160;-72
2021/10/09 00:26:58;;;;;;;6.47;2.45;;;;;;;12.21;28.23;102056.56;1660509;86;20997;-69
2021/10/09 00:29:25;;;;;;;5.87;2.80;;;;;;;12.19;28.25;102053.26;1663126;84;21050;-71
2021/10/09 00:31:51;;;;;;;6.70;2.50;;;;;;;12.04;28.48;102053.44;1661939;84;21620;-68
2021/10/09 00:34:18;;;;;;;8.25;2.60;;;;;;;11.96;28.60;102045.52;1663814;84;20993;-72
2021/10/09 00:36:44;;;;;;;7.45;2.83;;;;;;;11.80;28.81;102050.07;1661444;84;21171;-69
2021/10/09 00:39:11;;;;;;;7.58;2.70;;;;;;;11.69;28.98;102047.17;1662553;84;21175;-69
2021/10/09 00:41:37;;;;;;;6.42;2.90;;;;;;;11.74;28.96;102044.93;1653262;84;20926;-69
2021/10/09 00:44:13;;;;;;;8.18;2.77;;;;;;;11.69;29.05;102036.72;1663720;84;21112;-69
2021/10/09 00:46:41;;;;;;;5.78;2.25;;;;;;;11.53;29.28;102035.23;1627572;86;21034;-69
2021/10/09 00:49:14;;;;;;;5.50;2.98;;;;;;;11.92;28.80;102040.59;1659393;84;22167;-69
2021/10/09 00:51:37;;;;;;;6.37;2.70;;;;;;;12.05;28.62;102043.34;1648431;84;21037;-68
2021/10/09 00:54:04;;;;;;;4.83;2.15;;;;;;;12.16;28.53;102045.73;1657744;84;21551;-68
2021/10/09 00:56:32;;;;;;;8.88;3.25;;;;;;;12.07;28.64;102045.31;1658059;84;21079;-72
2021/10/09 00:58:58;;;;;;;5.90;2.92;;;;;;;11.83;28.82;102044.09;1588756;85;21028;-72
2021/10/09 01:01:25;;;;;;;5.90;2.50;;;;;;;11.95;28.79;102039.97;1659987;84;21168;-69
2021/10/09 01:03:52;;;;;;;6.58;2.47;;;;;;;11.83;28.91;102036.26;1659036;84;21088;-69
2021/10/09 01:06:19;;;;;;;8.48;2.60;;;;;;;11.74;29.04;102042.32;1669211;84;20989;-69
2021/10/09 01:08:46;;;;;;;7.08;2.92;;;;;;;11.86;29.05;102033.36;1668375;84;21090;-71
2021/10/09 01:11:13;;;;;;;6.45;2.77;;;;;;;11.85;29.02;102035.61;1670450;84;21059;-72
2021/10/09 01:13:40;;;;;;;6.58;2.42;;;;;;;11.62;29.37;102039.58;1668832;84;21153;-69
2021/10/09 01:16:24;;;;;;;6.50;2.65;;;;;;;11.72;29.30;102035.12;1669844;84;20974;-70
2021/10/09 01:18:52;;;;;;;7.78;3.00;;;;;;;11.83;29.08;102034.95;1668770;84;21593;-69
2021/10/09 01:21:19;;;;;;;8.10;3.12;;;;;;;11.87;29.12;102042.02;1662298;84;21560;-69
2021/10/09 01:23:47;;;;;;;5.20;2.25;;;;;;;11.81;29.19;102043.37;1663317;84;21091;-68
2021/10/09 01:26:14;;;;;;;6.67;2.90;;;;;;;11.87;29.13;102044.14;1665063;84;21169;-68
2021/10/09 01:28:48;;;;;;;8.25;3.77;;;;;;;11.88;29.14;102040.55;1662896;86;20959;-70
2021/10/09 01:31:16;;;;;;;8.18;3.00;;;;;;;11.77;29.22;102040.72;1642113;86;21042;-69
2021/10/09 01:33:43;;;;;;;5.12;2.10;;;;;;;11.69;29.29;102043.25;1664849;84;20968;-69
2021/10/09 01:36:11;;;;;;;5.47;2.40;;;;;;;11.89;29.12;102038.30;1664823;83;21007;-69
2021/10/09 01:38:40;;;;;;;5.30;2.70;;;;;;;11.84;29.21;102041.81;1642958;85;21187;-72
2021/10/09 01:41:08;;;;;;;6.70;2.90;;;;;;;11.90;29.15;102045.64;1690868;83;21039;-68
2021/10/09 01:43:37;;;;;;;7.83;3.02;;;;;;;11.99;29.07;102043.92;1683881;83;21013;-69
2021/10/09 01:46:04;;;;;;;7.65;2.52;;;;;;;11.83;29.11;102040.64;1691489;84;21076;-70
2021/10/09 01:48:34;;;;;;;7.65;3.10;;;;;;;11.65;29.40;102049.25;1690437;84;21055;-71
2021/10/09 01:51:03;;;;;;;6.85;2.80;;;;;;;11.86;29.22;102048.22;1691233;84;21137;-69
2021/10/09 01:53:31;;;;;;;4.60;2.30;;;;;;;11.90;29.14;102043.85;1690499;84;20944;-70
2021/10/09 01:55:58;;;;;;;9.43;2.30;;;;;;;11.99;29.08;102045.23;1691476;84;21064;-69
2021/10/09 01:58:25;;;;;;;6.67;2.62;;;;;;;12.00;29.15;102040.34;1690767;84;21549;-72
2021/10/09 02:00:52;;;;;;;7.30;2.58;;;;;;;11.88;29.13;102041.86;1690377;84;21084;-72
2021/10/09 02:03:20;;;;;;;5.03;2.40;;;;;;;11.89;29.11;102038.75;1691132;84;22662;-70
2021/10/09 02:05:49;;;;;;;5.75;2.60;;;;;;;11.92;29.21;102037.97;1687750;83;21009;-70
2021/10/09 02:08:16;;;;;;;5.58;2.77;;;;;;;11.98;29.13;102035.76;1687237;83;20989;-70
2021/10/09 02:10:57;;;;;;;4.83;2.35;;;;;;;12.04;29.02;102034.66;1686880;84;21005;-73
2021/10/09 02:13:35;;;;;;;5.45;2.58;;;;;;;12.11;28.95;102029.66;1685492;83;21605;-70
2021/10/09 02:26:32;;;;;;;6.17;2.45;;;;;;;11.84;29.37;102032.67;1685602;84;21161;-68
2021/10/09 02:29:00;;;;;;;5.37;2.20;;;;;;;11.71;29.53;102032.19;1686729;83;21160;-69
2021/10/09 02:31:28;;;;;;;6.45;2.25;;;;;;;11.75;29.53;102034.02;1686816;84;20948;-70
2021/10/09 02:33:55;;;;;;;8.60;2.60;;;;;;;11.80;29.54;102031.30;1686306;83;20997;-72
2021/10/09 02:36:22;;;;;;;5.87;2.20;;;;;;;11.66;29.65;102035.22;1686085;83;21334;-69
2021/10/09 02:38:48;;;;;;;4.78;2.42;;;;;;;11.70;29.62;102035.74;1686450;83;22427;-69
2021/10/09 02:41:16;;;;;;;6.67;2.95;;;;;;;11.55;29.73;102031.50;1686605;84;22090;-70
2021/10/09 02:43:42;;;;;;;4.53;2.05;;;;;;;11.71;29.68;102032.19;1686744;83;21486;-73
2021/10/09 02:46:09;;;;;;;5.53;1.98;;;;;;;11.27;30.16;102031.17;1686462;84;20996;-69
2021/10/09 02:48:39;;;;;;;7.65;2.80;;;;;;;11.25;30.36;102027.41;1681389;84;21656;-70
2021/10/09 02:51:06;;;;;;;6.53;2.60;;;;;;;11.10;30.62;102029.66;1686697;83;21183;-67
2021/10/09 02:53:33;;;;;;;6.35;2.87;;;;;;;11.15;30.56;102029.23;1687110;83;21152;-69
2021/10/09 02:55:59;;;;;;;6.30;2.50;;;;;;;10.94;30.83;102027.63;1686086;83;21041;-67
2021/10/09 02:58:28;;;;;;;5.67;2.27;;;;;;;11.10;30.76;102025.75;1686671;83;21486;-73
2021/10/09 03:00:55;;;;;;;5.03;2.65;;;;;;;11.34;30.47;102033.06;1684405;78;21048;-68
2021/10/09 03:03:21;;;;;;;5.95;2.67;;;;;;;11.42;30.39;102030.54;1665009;84;21006;-69
2021/10/09 03:05:48;;;;;;;5.25;2.33;;;;;;;11.36;30.39;102032.91;1667768;84;21109;-69
2021/10/09 03:08:15;;;;;;;4.35;2.10;;;;;;;11.54;30.18;102032.95;1666893;84;21095;-68
2021/10/09 03:10:41;;;;;;;8.03;2.77;;;;;;;11.38;30.32;102030.50;1666998;85;21036;-75
2021/10/09 03:13:10;;;;;;;4.42;1.67;;;;;;;11.41;30.29;102027.60;1665146;84;21109;-70
2021/10/09 03:15:36;;;;;;;6.00;2.25;;;;;;;11.57;30.10;102028.27;1656871;85;21698;-73
2021/10/09 03:18:04;;;;;;;4.95;2.37;;;;;;;11.58;30.06;102033.82;1666637;85;21155;-65
2021/10/09 03:20:33;;;;;;;10.28;3.10;;;;;;;11.51;30.11;102030.14;1665753;84;21541;-74
2021/10/09 03:23:00;;;;;;;4.92;2.30;;;;;;;11.39;30.28;102029.52;1666849;85;21039;-64
2021/10/09 03:25:27;;;;;;;5.45;2.52;;;;;;;11.42;30.31;102027.93;1665961;84;21061;-72
2021/10/09 03:27:56;;;;;;;5.05;2.35;;;;;;;11.48;30.26;102030.92;1666467;85;20952;-64
2021/10/09 03:30:24;;;;;;;7.72;2.47;;;;;;;11.59;30.09;102026.34;1665517;85;21186;-71
2021/10/09 03:32:51;;;;;;;4.60;2.10;;;;;;;11.66;30.08;102025.25;1666392;84;21068;-63
2021/10/09 03:35:17;;;;;;;4.80;2.35;;;;;;;11.71;29.99;102025.66;1665544;84;21118;-62
2021/10/09 03:37:46;;;;;;;5.67;2.77;;;;;;;11.73;29.98;102032.03;1664861;85;21125;-61
2021/10/09 03:40:15;;;;;;;6.00;2.47;;;;;;;11.83;29.85;102024.96;1667076;84;22099;-64
2021/10/09 03:42:49;;;;;;;4.75;2.58;;;;;;;12.03;29.62;102019.13;1666254;84;21139;-64
2021/10/09 03:48:17;;;;;;;5.20;2.35;;;;;;;12.10;29.51;102029.33;1602051;85;21549;-64
2021/10/09 03:53:01;;;;;;;4.58;2.70;;;;;;;12.02;29.73;102029.27;1667647;84;21501;-65
2021/10/09 03:55:28;;;;;;;5.55;2.47;;;;;;;12.25;29.64;102021.78;1667191;85;22346;-64
2021/10/09 03:57:54;;;;;;;5.30;2.65;;;;;;;12.66;29.16;102027.66;1667482;84;21352;-68
2021/10/09 04:00:21;;;;;;;5.40;2.75;;;;;;;13.04;28.82;102024.29;1666247;85;20944;-74
2021/10/09 04:02:50;;;;;;;8.95;2.77;;;;;;;13.50;28.27;102020.09;1666935;84;21000;-68
2021/10/09 04:05:17;;;;;;;9.03;2.77;;;;;;;13.92;27.78;102018.72;1671658;85;21052;-71
2021/10/09 04:07:43;;;;;;;7.67;3.02;;;;;;;14.27;27.31;102015.45;1665264;85;21130;-67
2021/10/09 04:10:12;;;;;;;6.67;2.83;;;;;;;14.69;26.84;102012.66;1670057;84;20940;-68
2021/10/09 04:12:40;;;;;;;7.67;3.05;;;;;;;15.21;26.33;102002.98;1662484;84;20924;-68
2021/10/09 04:15:08;;;;;;;6.45;3.15;;;;;;;15.47;25.85;102015.03;1671568;85;21078;-71
2021/10/09 04:17:37;;;;;;;6.75;3.70;;;;;;;15.72;25.52;102011.31;1666147;85;21408;-68
2021/10/09 04:20:06;;;;;;;9.30;3.62;;;;;;;15.94;25.11;102008.84;1671547;84;21569;-69
2021/10/09 04:22:33;;;;;;;6.22;3.37;;;;;;;16.23;24.94;102013.41;1683119;84;21125;-70
2021/10/09 04:25:00;;;;;;;7.03;3.30;;;;;;;16.46;24.64;102011.55;1677954;84;21093;-68
2021/10/09 04:27:27;;;;;;;6.33;2.80;;;;;;;16.54;24.50;102008.83;1683741;84;21014;-70
2021/10/09 04:29:54;;;;;;;7.42;3.35;;;;;;;16.46;24.39;102018.12;1679935;84;21128;-69
2021/10/09 04:32:21;;;;;;;5.55;2.70;;;;;;;16.32;24.47;102022.85;1681736;84;21617;-70
2021/10/09 04:34:48;;;;;;;9.90;3.20;;;;;;;15.95;24.68;102017.89;1680698;84;21072;-68
2021/10/09 04:37:15;;;;;;;7.53;3.05;;;;;;;15.68;25.04;102021.86;1682020;84;21140;-71
2021/10/09 04:39:43;;;;;;;5.03;2.85;;;;;;;15.37;25.40;102021.80;1680985;84;21176;-67
2021/10/09 04:42:09;;;;;;;5.72;2.98;;;;;;;15.17;25.72;102024.52;1676302;84;21710;-68
2021/10/09 04:44:37;;;;;;;4.72;2.45;;;;;;;15.17;25.68;102026.65;1678810;84;21539;-72
2021/10/09 04:47:05;;;;;;;6.42;2.70;;;;;;;15.21;25.74;102020.06;1654923;84;22185;-73
2021/10/09 04:49:33;;;;;;;9.10;3.10;;;;;;;15.05;25.98;102023.58;1677221;84;21145;-67
2021/10/09 04:52:00;;;;;;;6.25;3.30;;;;;;;15.01;26.05;102030.66;1682294;84;21105;-66
2021/10/09 04:54:29;;;;;;;5.58;2.87;;;;;;;14.93;26.26;102028.87;1680047;84;21019;-73
2021/10/09 04:56:55;;;;;;;6.35;2.40;;;;;;;14.86;26.29;102033.64;1674725;84;22386;-69
2021/10/09 04:59:22;;;;;;;6.97;2.83;;;;;;;14.88;26.22;102032.97;1674318;84;21121;-73
2021/10/09 05:01:50;;;;;;;7.40;3.05;;;;;;;15.00;26.30;102039.49;1687378;83;20913;-68
2021/10/09 05:04:17;;;;;;;8.08;2.98;;;;;;;15.09;26.16;102028.81;1692097;83;20920;-65
2021/10/09 05:06:45;;;;;;;5.62;2.75;;;;;;;15.18;26.06;102034.84;1694383;82;20986;-72
2021/10/09 05:09:13;;;;;;;9.33;3.00;;;;;;;15.21;26.14;102030.57;1691541;83;21240;-66
2021/10/09 05:11:40;;;;;;;5.87;2.70;;;;;;;15.18;26.15;102043.22;1691651;83;21334;-63
2021/10/09 05:14:07;;;;;;;8.33;3.80;;;;;;;15.31;25.98;102036.45;1691922;83;21068;-65
2021/10/09 05:16:34;;;;;;;6.20;2.95;;;;;;;15.52;25.90;102037.16;1693489;83;21036;-64
2021/10/09 05:19:02;;;;;;;6.22;2.70;;;;;;;15.58;25.84;102039.61;1690675;83;21084;-63
2021/10/09 05:21:30;;;;;;;4.40;2.50;;;;;;;15.74;25.75;102040.86;1669542;83;21161;-66
2021/10/09 05:23:57;;;;;;;6.75;2.83;;;;;;;15.53;25.90;102048.02;1702591;83;21102;-66
2021/10/09 05:26:23;;;;;;;7.00;2.50;;;;;;;15.85;25.74;102038.34;1692097;83;21061;-65
2021/10/09 05:28:50;;;;;;;6.28;2.77;;;;;;;16.16;25.26;102040.09;1691340;83;21558;-75
2021/10/09 05:31:29;;;;;;;6.90;2.75;;;;;;;16.26;25.26;102040.69;1688847;83;21062;-66
2021/10/09 05:33:53;;;;;;;4.72;2.58;;;;;;;16.45;25.04;102045.95;1691089;83;21228;-65
2021/10/09 05:36:21;;;;;;;8.08;2.90;;;;;;;16.64;25.00;102045.95;1693712;83;21597;-64
2021/10/09 05:38:49;;;;;;;9.00;3.45;;;;;;;16.90;24.66;102036.34;1694351;83;21024;-73
2021/10/09 05:41:15;;;;;;;7.80;3.25;;;;;;;17.07;24.45;102032.51;1694308;82;21019;-68
2021/10/09 05:43:45;;;;;;;5.12;2.87;;;;;;;17.28;24.53;102028.33;1693410;82;21116;-65
2021/10/09 05:46:14;;;;;;;8.20;3.10;;;;;;;17.64;24.14;102022.55;1693656;83;21039;-65
2021/10/09 05:48:41;;;;;;;6.35;2.95;;;;;;;18.18;23.58;102024.75;1691071;83;21051;-65
2021/10/09 05:51:24;;;;;;;7.58;3.08;;;;;;;18.71;22.92;102016.41;1692193;83;21561;-73
2021/10/09 05:53:58;;;;;;;8.83;4.12;;;;;;;18.86;22.62;102017.62;1671969;85;21569;-66
2021/10/09 06:31:14;;;;;;;7.70;4.03;;;;;;;22.13;18.85;102022.45;1687812;83;22204;-66
2021/10/09 06:45:06;;;;;;;9.90;4.60;;;;;;;22.72;18.93;102007.27;1690780;83;21068;-66
2021/10/09 06:47:33;;;;;;;10.33;4.30;;;;;;;23.04;18.44;102012.48;1692117;83;21096;-70
2021/10/09 07:00:42;;;;;;;8.17;3.57;;;;;;;23.12;17.99;101989.56;1680920;83;21046;-70
2021/10/09 07:03:09;;;;;;;7.97;3.93;;;;;;;23.26;17.91;101986.20;1680962;84;22506;-66
2021/10/09 07:05:41;;;;;;;7.97;3.67;;;;;;;23.47;17.72;101989.70;1685237;83;21136;-65
2021/10/09 07:08:10;;;;;;;9.33;3.58;;;;;;;23.47;17.42;101989.70;1683095;83;21471;-66
2021/10/09 07:10:41;;;;;;;;;;;;;;;23.55;17.52;101993.88;1687362;83;21077;-68
2021/10/09 07:13:08;;;;;;;6.53;3.03;;;;;;;23.44;17.63;101990.14;1686582;84;20241;-65
2021/10/09 07:15:35;;;;;;;10.20;3.47;;;;;;;23.52;17.17;101988.52;1687745;84;21019;-64
2021/10/09 07:18:04;;;;;;;8.07;3.10;;;;;;;23.34;17.37;101981.91;1687309;84;21228;-64
2021/10/09 07:20:30;;;;;;;8.07;2.93;;;;;;;23.32;17.59;101978.66;1685626;84;21092;-68
2021/10/09 07:22:57;;;;;;;6.67;3.13;;;;;;;23.30;17.35;101988.73;1669285;84;22415;-66
2021/10/09 07:25:24;;;;;;;6.47;2.90;;;;;;;23.32;17.07;101977.33;1683697;84;21069;-67
2021/10/09 07:27:50;;;;;;;8.50;3.10;;;;;;;23.26;17.07;101975.06;1687034;83;21084;-67
2021/10/09 07:30:17;;;;;;;7.33;3.47;;;;;;;23.38;17.11;101979.09;1684761;84;21167;-69
2021/10/09 07:32:45;;;;;;;7.93;3.23;;;;;;;23.43;17.03;101965.91;1685908;84;21011;-66
2021/10/09 07:35:12;;;;;;;6.60;3.73;;;;;;;23.50;16.86;101971.95;1687882;83;21090;-65
2021/10/09 07:37:40;;;;;;;8.53;3.67;;;;;;;23.28;16.99;101976.16;1687766;83;20984;-66
2021/10/09 07:40:09;;;;;;;10.23;3.33;;;;;;;23.23;16.87;101980.02;1668544;84;20969;-68
2021/10/09 07:42:36;;;;;;;5.73;2.63;;;;;;;23.35;16.93;101967.56;1690094;84;21718;-65
2021/10/09 07:45:05;;;;;;;9.33;2.67;;;;;;;23.35;16.77;101964.09;1686884;83;21240;-66
2021/10/09 07:47:32;;;;;;;7.23;2.93;;;;;;;23.46;16.90;101950.02;1685885;83;21050;-65
2021/10/09 07:49:58;;;;;;;7.63;2.73;;;;;;;23.68;16.54;101948.47;1691409;83;21023;-65
2021/10/09 07:52:25;;;;;;;5.93;2.87;;;;;;;23.74;16.31;101968.03;1687251;84;21073;-71
2021/10/09 07:54:53;;;;;;;10.40;3.90;;;;;;;23.54;16.48;101959.80;1688382;83;21103;-65
2021/10/09 07:57:19;;;;;;;9.47;2.70;;;;;;;23.69;16.41;101969.25;1689449;83;21074;-67
2021/10/09 07:59:46;;;;;;;7.20;3.20;;;;;;;23.52;16.48;101959.23;1689324;83;20882;-67
2021/10/09 08:02:15;;;;;;;9.27;3.57;;;;;;;23.62;16.70;101959.19;1686520;83;21710;-68
2021/10/09 08:04:43;;;;;;;8.20;2.77;;;;;;;23.83;16.53;101954.69;1650128;85;21588;-68
2021/10/09 08:07:11;;;;;;;8.70;4.00;;;;;;;24.42;16.16;101946.70;1666591;84;21157;-65
2021/10/09 08:09:39;;;;;;;7.23;3.33;;;;;;;24.42;16.09;101942.17;1691052;83;21489;-64
2021/10/09 08:12:06;;;;;;;7.37;3.37;;;;;;;24.47;15.83;101934.31;1686794;83;21495;-63
2021/10/09 08:14:35;;;;;;;6.30;2.70;;;;;;;24.47;15.80;101939.64;1686427;83;20912;-69
2021/10/09 08:17:02;;;;;;;8.60;2.93;;;;;;;24.55;15.51;101941.63;1686102;83;20965;-65
2021/10/09 08:19:29;;;;;;;5.07;2.60;;;;;;;24.64;15.61;101940.23;1682132;83;22331;-67
2021/10/09 08:22:00;;;;;;;5.53;2.70;;;;;;;24.78;15.48;101928.26;1685945;83;20963;-66
2021/10/09 08:40:27;;;;;;;5.10;2.70;;;;;;;25.18;15.24;101915.40;1684095;83;21115;-65
2021/10/09 08:42:53;;;;;;;5.07;2.60;;;;;;;25.29;15.16;101918.53;1684939;84;21067;-63
2021/10/09 08:45:20;;;;;;;6.20;2.90;;;;;;;25.05;15.02;101907.67;1684308;83;21155;-67
2021/10/09 08:47:48;;;;;;;5.80;2.67;;;;;;;25.06;15.01;101903.95;1686110;83;20991;-72
2021/10/09 08:50:14;;;;;;;5.47;2.30;;;;;;;25.03;15.13;101903.89;1684684;83;21908;-69
2021/10/09 08:53:08;;;;;;;6.73;3.20;;;;;;;25.02;14.93;101902.81;1682632;85;21560;-65
2021/10/09 08:55:38;;;;;;;6.20;2.87;;;;;;;25.01;15.06;101896.67;1684971;83;20955;-68
2021/10/09 08:58:09;;;;;;;8.80;4.20;;;;;;;25.18;15.00;101898.05;1680144;85;21176;-67
2021/10/09 09:03:26;;;;;;;6.00;2.50;;;;;;;25.32;14.40;101888.69;1688325;83;20943;-66
2021/10/09 09:08:51;;;;;;;6.22;1.87;;;;;;;25.31;13.96;101889.75;1694593;83;21311;-65
2021/10/09 09:30:55;;;;;;;4.90;1.77;;;;;;;24.29;14.06;101869.12;1697093;83;21120;-66
2021/10/09 09:41:20;;;;;;;4.70;1.60;;;;;;;24.49;13.37;101859.42;1692267;83;20978;-68
2021/10/09 09:43:54;;;;;;;6.03;1.70;;;;;;;24.69;13.33;101857.66;1692757;84;20876;-68
2021/10/09 09:46:24;;;;;;;10.07;2.13;;;;;;;24.65;13.08;101870.66;1692592;84;21520;-72
2021/10/09 09:48:51;;;;;;;2.90;1.33;;;;;;;24.51;12.82;101862.67;1693114;83;22625;-66
2021/10/09 09:51:20;;;;;;;3.83;1.50;;;;;;;24.32;12.88;101875.82;1692964;84;21220;-66
2021/10/09 09:53:49;;;;;;;3.60;1.40;;;;;;;24.07;12.86;101872.11;1694782;82;20908;-65
2021/10/09 09:56:16;;;;;;;6.67;1.43;;;;;;;24.02;13.13;101893.61;1693869;83;21076;-73
2021/10/09 09:58:47;;;;;;;2.43;1.10;;;;;;;24.04;13.35;101867.53;1693480;84;21144;-66
2021/10/09 10:01:13;;;;;;;3.40;1.50;;;;;;;23.82;13.45;101855.84;1693010;84;21094;-65
2021/10/09 10:03:46;;;;;;;4.77;1.70;;;;;;;23.60;13.55;101860.09;1694988;83;21145;-65
2021/10/09 10:06:13;;;;;;;3.40;1.47;;;;;;;23.36;13.79;101868.06;1650562;83;21028;-67
2021/10/09 10:08:41;;;;;;;7.40;1.90;;;;;;;23.24;13.70;101864.57;1684532;84;21721;-71
2021/10/09 10:11:13;;;;;;;4.93;1.43;;;;;;;23.24;13.70;101864.57;1679217;84;21029;-65
2021/10/09 10:13:41;;;;;;;3.40;1.33;;;;;;;23.16;13.72;101852.93;1683670;84;20921;-67
2021/10/09 10:16:11;;;;;;;3.60;1.50;;;;;;;23.23;13.57;101868.28;1687118;84;21241;-67
2021/10/09 10:18:49;;;;;;;3.63;1.53;;;;;;;23.22;13.52;101880.77;1683066;83;23031;-68
2021/10/09 10:21:40;;;;;;;6.23;1.90;;;;;;;23.41;13.47;101867.36;1686414;84;22309;-64
2021/10/09 10:24:12;;;;;;;5.37;1.70;;;;;;;23.45;13.82;101861.88;1680195;83;21044;-64
2021/10/09 10:26:39;;;;;;;4.20;1.30;;;;;;;23.68;13.81;101861.14;1659333;85;20952;-65
2021/10/09 10:29:18;;;;;;;3.63;1.77;;;;;;;23.75;13.87;101851.16;1655159;85;21119;-67
2021/10/09 10:32:13;;;;;;;4.23;1.57;;;;;;;23.81;13.91;101842.25;1645879;86;20916;-66
2021/10/09 10:34:38;;;;;;;3.77;1.67;;;;;;;23.93;13.86;101851.56;1624584;86;21102;-66
2021/10/09 10:37:05;;;;;;;4.47;2.17;;;;;;;23.76;13.60;101844.81;1643752;86;22282;-70
2021/10/09 10:39:40;;;;;;;5.50;1.80;;;;;;;23.71;13.96;101843.34;1636250;85;21042;-66
2021/10/09 10:42:19;;;;;;;6.57;2.33;;;;;;;23.91;14.06;101840.34;1643145;86;21171;-66
2021/10/09 10:54:05;;;;;;;3.60;1.30;;;;;;;23.78;13.99;101830.73;1677637;83;21000;-66
2021/10/09 10:56:27;;;;;;;3.90;1.60;;;;;;;23.88;14.07;101816.31;1682131;83;21154;-66
2021/10/09 10:59:21;;;;;;;3.77;1.50;;;;;;;23.91;13.93;101823.84;1687102;83;21069;-70
2021/10/09 11:01:47;;;;;;;4.63;1.57;;;;;;;23.77;13.84;101825.92;1680248;83;21049;-66
2021/10/09 11:04:14;;;;;;;3.27;1.40;;;;;;;23.50;13.64;101830.88;1687480;82;21042;-66
2021/10/09 11:06:41;;;;;;;5.03;1.30;;;;;;;23.50;13.50;101837.53;1692849;84;21034;-72
2021/10/09 11:09:07;;;;;;;3.50;1.50;;;;;;;23.50;13.50;101837.53;1647825;83;21619;-67
2021/10/09 11:11:35;;;;;;;3.10;1.50;;;;;;;23.62;13.51;101834.88;1691726;83;21064;-66
2021/10/09 11:14:02;;;;;;;7.60;3.40;;;;;;;23.71;13.71;101826.84;1690636;84;20995;-68
2021/10/09 11:16:33;;;;;;;5.67;2.17;;;;;;;23.75;14.02;101827.19;1692329;83;21055;-65
2021/10/09 11:18:59;;;;;;;6.35;1.67;;;;;;;23.89;13.93;101828.58;1688023;84;21422;-66
2021/10/09 11:21:26;;;;;;;4.83;1.57;;;;;;;24.20;13.71;101811.89;1690177;83;21249;-65
2021/10/09 11:23:55;;;;;;;4.63;1.87;;;;;;;24.37;13.63;101807.45;1655298;84;21015;-66
2021/10/09 11:26:22;;;;;;;8.73;2.70;;;;;;;24.51;13.60;101809.36;1697105;83;20999;-66
2021/10/09 11:29:05;;;;;;;7.00;2.70;;;;;;;24.57;13.64;101803.05;1689237;83;21017;-71
2021/10/09 11:31:32;;;;;;;7.70;2.80;;;;;;;24.81;13.58;101801.06;1692031;83;21101;-67
2021/10/09 11:34:04;;;;;;;4.63;2.60;;;;;;;24.87;13.57;101805.45;1696871;83;21154;-67
2021/10/09 11:36:34;;;;;;;13.83;8.53;;;;;;;24.93;13.53;101797.03;1696689;82;20984;-72
2021/10/09 11:39:13;;;;;;;32.50;27.93;;;;;;;24.96;13.57;101791.19;1656106;83;21119;-67
2021/10/09 11:41:42;;;;;;;40.87;34.83;;;;;;;25.21;13.44;101792.16;1694451;82;21728;-66
2021/10/09 11:44:26;;;;;;;11.80;1.97;;;;;;;25.08;13.41;101801.78;1697531;82;21485;-70
2021/10/09 11:55:22;;;;;;;4.40;1.83;;;;;;;24.82;13.45;101789.90;1693507;83;21075;-73
2021/10/09 11:57:49;;;;;;;3.77;1.57;;;;;;;24.83;13.42;101793.65;1693685;83;21455;-68
2021/10/09 12:00:36;;;;;;;3.67;1.40;;;;;;;24.78;13.31;101784.77;1692979;83;22148;-67
2021/10/09 12:03:28;;;;;;;4.87;2.57;;;;;;;24.53;13.47;101785.92;1693086;83;20983;-72
2021/10/09 12:05:59;;;;;;;4.07;1.73;;;;;;;24.45;13.48;101796.44;1685717;83;21053;-67
2021/10/09 12:08:27;;;;;;;4.00;1.40;;;;;;;24.37;13.45;101789.33;1693202;83;20997;-74
2021/10/09 12:11:26;;;;;;;5.00;3.10;;;;;;;24.35;13.44;101780.21;1692672;83;21042;-67
2021/10/09 12:14:02;;;;;;;7.93;4.17;;;;;;;24.44;13.58;101781.50;1694055;83;21933;-66
2021/10/09 12:16:37;;;;;;;4.87;2.00;;;;;;;24.46;13.60;101785.25;1693168;83;21659;-69
2021/10/09 12:19:11;;;;;;;3.03;1.30;;;;;;;24.59;13.69;101776.97;1695324;83;21033;-67
2021/10/09 12:21:42;;;;;;;3.83;1.20;;;;;;;24.67;13.53;101778.44;1698699;83;20963;-68
2021/10/09 12:24:16;;;;;;;4.25;1.52;;;;;;;24.51;13.42;101768.03;1687192;83;21152;-75
2021/10/09 12:26:42;;;;;;;2.83;1.13;;;;;;;24.39;13.37;101769.39;1691854;83;21096;-67
2021/10/09 12:29:12;;;;;;;3.97;1.60;;;;;;;24.40;13.54;101771.03;1691145;83;21003;-67
2021/10/09 12:31:46;;;;;;;2.23;1.20;;;;;;;24.34;13.47;101774.61;1688761;83;21082;-73
2021/10/09 12:34:34;;;;;;;3.20;1.47;;;;;;;24.35;13.52;101778.88;1688373;83;21055;-69
2021/10/09 12:37:17;;;;;;;3.13;1.60;;;;;;;24.46;13.48;101766.06;1692184;83;21616;-67
2021/10/09 12:39:46;;;;;;;3.27;1.70;;;;;;;24.24;13.46;101773.91;1692061;83;22258;-66
2021/10/09 12:42:16;;;;;;;5.03;1.83;;;;;;;24.27;13.51;101769.94;1691533;83;21587;-67
2021/10/09 12:44:43;;;;;;;3.13;1.40;;;;;;;24.04;13.66;101770.30;1683788;84;20987;-69
2021/10/09 12:47:10;;;;;;;4.30;1.97;;;;;;;23.91;13.85;101763.92;1689792;84;21705;-74
2021/10/09 12:49:36;;;;;;;4.50;1.60;;;;;;;23.87;14.02;101757.44;1698866;83;21093;-67
2021/10/09 12:52:04;;;;;;;5.37;1.47;;;;;;;23.89;14.27;101757.20;1692780;83;22343;-66
2021/10/09 12:54:32;;;;;;;4.20;1.80;;;;;;;23.79;14.21;101757.81;1691480;83;21562;-66
2021/10/09 12:56:58;;;;;;;5.33;1.60;;;;;;;23.73;14.30;101755.55;1692615;83;21736;-71
2021/10/09 12:59:26;;;;;;;3.67;1.57;;;;;;;23.88;14.22;101739.08;1697375;83;20983;-64
2021/10/09 13:01:53;;;;;;;4.60;1.60;;;;;;;23.60;14.32;101761.59;1695192;83;21018;-65
2021/10/09 13:04:19;;;;;;;3.50;1.60;;;;;;;23.70;14.56;101744.03;1688250;83;21118;-65
2021/10/09 13:06:46;;;;;;;5.30;2.20;;;;;;;23.70;14.56;101744.03;1665948;85;20952;-65
2021/10/09 13:09:14;;;;;;;4.63;2.10;;;;;;;23.50;14.92;101768.33;1665099;85;21028;-72
2021/10/09 13:11:48;;;;;;;4.40;1.80;;;;;;;23.50;14.92;101768.33;1665992;84;21093;-67
2021/10/09 13:14:14;;;;;;;6.23;2.47;;;;;;;23.67;14.63;101763.13;1680799;84;21569;-67
2021/10/09 13:16:40;;;;;;;5.03;2.20;;;;;;;23.54;14.83;101747.38;1677863;84;21119;-67
2021/10/09 13:19:07;;;;;;;6.80;2.73;;;;;;;23.63;14.73;101740.64;1682924;84;21544;-71
2021/10/09 13:21:34;;;;;;;5.53;2.03;;;;;;;23.57;14.76;101748.25;1677701;84;21895;-69
2021/10/09 13:24:01;;;;;;;11.77;2.67;;;;;;;23.61;14.89;101748.60;1684950;84;22242;-68
2021/10/09 13:26:30;;;;;;;5.83;1.80;;;;;;;23.89;15.14;101750.02;1677481;84;36617;-69
2021/10/09 13:29:01;;;;;;;4.77;1.80;;;;;;;23.89;15.14;101750.02;1678257;84;21372;-69
2021/10/09 13:31:28;;;;;;;6.30;1.70;;;;;;;23.91;14.81;101746.61;1676387;84;22341;-67
2021/10/09 13:33:56;;;;;;;6.13;2.33;;;;;;;23.89;14.93;101739.36;1671632;84;21763;-67
2021/10/09 13:36:24;;;;;;;6.43;2.40;;;;;;;23.78;15.10;101740.20;1682361;84;21689;-67
2021/10/09 13:38:50;;;;;;;5.70;2.40;;;;;;;23.67;15.19;101740.50;1667120;84;21666;-72
2021/10/09 13:41:17;;;;;;;6.07;2.00;;;;;;;23.67;15.26;101733.03;1679829;84;22022;-67
2021/10/09 13:43:44;;;;;;;4.80;2.03;;;;;;;23.46;15.30;101741.89;1672402;84;21790;-68
2021/10/09 13:46:13;;;;;;;7.20;3.00;;;;;;;23.31;15.26;101734.91;1681597;84;21771;-68
2021/10/09 13:48:42;;;;;;;5.13;1.90;;;;;;;23.31;15.26;101734.91;1653729;85;21610;-69
2021/10/09 13:51:15;;;;;;;5.07;2.00;;;;;;;23.57;15.64;101735.47;1655102;85;22206;-71